Time;durP1;ratioP1;P1;durP2;ratioP2;P2;SDS_P1;SDS_P2;PMS_P1;PMS_P2;Temp;Humidity;BMP_temperature;BMP_pressure;BME280_temperature;BME280_humidity;BME280_pressure;Samples;Min_cycle;Max_cycle;Signal;HPM_P1;HPM_P2
2021/03/16 00:01:31;;;;;;;10.15;1.40;;;21.40;34.40;;;;;;5092282;28;20050;-73
2021/03/16 00:03:57;;;;;;;3.05;0.88;;;21.40;34.40;;;;;;5093826;28;20028;-73
2021/03/16 00:06:22;;;;;;;3.92;1.25;;;21.40;34.40;;;;;;5093377;28;20042;-73
2021/03/16 00:08:54;;;;;;;1.48;0.40;;;21.40;34.40;;;;;;5093841;28;20052;-73
2021/03/16 00:11:19;;;;;;;8.38;2.00;;;21.40;34.50;;;;;;5092055;28;20039;-73
2021/03/16 00:13:45;;;;;;;9.00;1.00;;;21.40;34.50;;;;;;5093117;28;20030;-81
2021/03/16 00:16:10;;;;;;;7.07;1.20;;;21.40;34.50;;;;;;5093072;28;20032;-83
2021/03/16 00:18:36;;;;;;;4.50;0.90;;;21.40;34.50;;;;;;5092077;28;20039;-81
2021/03/16 00:21:02;;;;;;;5.28;1.13;;;21.40;34.50;;;;;;5091780;28;20126;-82
2021/03/16 00:23:28;;;;;;;7.93;1.63;;;21.30;34.50;;;;;;5092454;28;20116;-83
2021/03/16 00:25:53;;;;;;;3.63;1.08;;;21.40;34.50;;;;;;5103895;28;20031;-81
2021/03/16 00:28:19;;;;;;;5.53;1.10;;;21.30;34.40;;;;;;5099707;28;20081;-81
2021/03/16 00:30:44;;;;;;;8.88;1.30;;;21.40;34.50;;;;;;5075350;28;20488;-81
2021/03/16 00:33:10;;;;;;;9.55;1.30;;;21.40;34.50;;;;;;5092598;28;20066;-81
2021/03/16 00:35:36;;;;;;;6.85;1.40;;;21.30;34.50;;;;;;5070136;28;20097;-73
2021/03/16 00:38:02;;;;;;;6.40;1.27;;;21.40;34.50;;;;;;5092797;28;20028;-73
2021/03/16 00:40:28;;;;;;;9.40;1.23;;;21.30;34.50;;;;;;5090677;28;20118;-72
2021/03/16 00:42:53;;;;;;;7.13;0.77;;;21.30;34.50;;;;;;5093041;28;20600;-72
2021/03/16 00:45:19;;;;;;;12.02;1.90;;;21.30;34.50;;;;;;5092932;28;20043;-72
2021/03/16 00:47:44;;;;;;;9.90;1.88;;;21.30;35.10;;;;;;5091391;28;20035;-72
2021/03/16 00:50:11;;;;;;;9.65;2.00;;;21.30;34.40;;;;;;5091757;28;20108;-72
2021/03/16 00:52:36;;;;;;;6.78;2.17;;;21.30;34.50;;;;;;5074696;28;20024;-72
2021/03/16 00:55:02;;;;;;;9.05;2.38;;;21.30;34.40;;;;;;5091315;28;20080;-72
2021/03/16 00:57:28;;;;;;;12.98;2.33;;;21.30;34.40;;;;;;5091315;28;20391;-73
2021/03/16 00:59:53;;;;;;;13.38;2.38;;;21.30;34.40;;;;;;5092534;28;20028;-72
2021/03/16 01:02:19;;;;;;;9.80;2.15;;;21.30;34.50;;;;;;5091201;28;20028;-72
2021/03/16 01:04:45;;;;;;;11.30;2.33;;;21.30;34.50;;;;;;5092198;28;20043;-73
2021/03/16 01:07:11;;;;;;;5.35;1.52;;;21.30;34.50;;;;;;5090732;28;20032;-72
2021/03/16 01:09:37;;;;;;;8.75;1.70;;;21.30;34.50;;;;;;5074582;28;20055;-72
2021/03/16 01:12:03;;;;;;;7.60;1.70;;;21.30;34.50;;;;;;5092135;28;20024;-72
2021/03/16 01:14:28;;;;;;;12.20;2.50;;;21.30;34.50;;;;;;5091580;28;20032;-73
2021/03/16 01:16:54;;;;;;;7.07;1.42;;;21.30;34.50;;;;;;5083126;28;20024;-73
2021/03/16 01:19:19;;;;;;;9.73;1.70;;;21.30;34.50;;;;;;5091038;28;20101;-73
2021/03/16 01:21:45;;;;;;;10.07;2.20;;;21.30;34.50;;;;;;5092777;28;20027;-73
2021/03/16 01:24:11;;;;;;;14.57;2.13;;;21.30;34.50;;;;;;5091938;28;20028;-73
2021/03/16 01:26:42;;;;;;;10.35;1.60;;;21.30;34.60;;;;;;5073628;28;20073;-73
2021/03/16 01:29:08;;;;;;;8.88;1.83;;;21.20;34.50;;;;;;5094584;28;20404;-73
2021/03/16 01:31:34;;;;;;;12.05;1.98;;;21.20;34.50;;;;;;5095489;28;20035;-73
2021/03/16 01:33:59;;;;;;;6.93;1.80;;;21.20;34.60;;;;;;5094465;28;20063;-73
2021/03/16 01:36:25;;;;;;;8.95;1.58;;;21.20;34.60;;;;;;5094265;28;20418;-73
2021/03/16 01:38:50;;;;;;;9.10;2.20;;;21.20;34.70;;;;;;5096685;28;20035;-73
2021/03/16 01:41:16;;;;;;;9.13;1.58;;;21.20;34.70;;;;;;5094236;28;20446;-72
2021/03/16 01:43:42;;;;;;;10.75;1.88;;;21.20;34.60;;;;;;5088489;28;20066;-73
2021/03/16 01:46:07;;;;;;;14.27;1.92;;;21.10;34.60;;;;;;5094623;28;20507;-73
2021/03/16 01:48:34;;;;;;;8.65;1.95;;;21.10;34.70;;;;;;5094788;28;20035;-73
2021/03/16 01:51:08;;;;;;;11.07;1.73;;;21.10;34.70;;;;;;5095024;28;20035;-73
2021/03/16 01:53:34;;;;;;;9.77;2.00;;;21.20;34.80;;;;;;5094883;28;20496;-72
2021/03/16 01:56:00;;;;;;;8.27;1.95;;;21.10;35.40;;;;;;5094073;28;20024;-72
2021/03/16 01:58:29;;;;;;;15.20;2.42;;;21.10;34.80;;;;;;5061389;28;20043;-72
2021/03/16 02:00:55;;;;;;;6.55;1.50;;;21.10;34.80;;;;;;5095193;28;20012;-72
2021/03/16 02:03:21;;;;;;;8.35;1.67;;;21.10;34.90;;;;;;5077015;28;20111;-73
2021/03/16 02:05:47;;;;;;;14.57;1.70;;;21.10;34.90;;;;;;5094026;28;20173;-73
2021/03/16 02:08:38;;;;;;;11.57;2.40;;;21.00;34.80;;;;;;5095007;28;20103;-73
2021/03/16 02:11:23;;;;;;;13.18;2.20;;;21.10;34.90;;;;;;5094956;28;20107;-72
2021/03/16 02:14:00;;;;;;;8.25;1.85;;;21.10;35.00;;;;;;5088619;28;20031;-72
2021/03/16 02:16:34;;;;;;;6.53;1.45;;;21.00;35.00;;;;;;5094274;28;20047;-72
2021/03/16 02:19:00;;;;;;;9.25;1.98;;;21.00;35.00;;;;;;5077714;28;20392;-72
2021/03/16 02:21:29;;;;;;;11.73;2.03;;;21.10;34.90;;;;;;5077203;28;20100;-72
2021/03/16 02:24:10;;;;;;;10.85;2.28;;;21.10;35.00;;;;;;5093701;28;20082;-72
2021/03/16 02:26:36;;;;;;;8.65;2.28;;;21.10;35.00;;;;;;5105321;28;20089;-72
2021/03/16 02:29:08;;;;;;;6.50;1.60;;;21.10;35.00;;;;;;5094370;28;20036;-72
2021/03/16 02:31:34;;;;;;;12.85;2.10;;;21.00;34.90;;;;;;5094227;28;20051;-73
2021/03/16 02:34:02;;;;;;;11.90;2.40;;;21.10;35.00;;;;;;5077527;28;20063;-72
2021/03/16 02:36:28;;;;;;;10.23;2.08;;;21.00;34.90;;;;;;5074818;28;20499;-73
2021/03/16 02:38:53;;;;;;;9.27;1.83;;;21.00;35.00;;;;;;5094251;28;20073;-72
2021/03/16 02:41:19;;;;;;;11.45;2.25;;;21.10;34.90;;;;;;5076812;28;20088;-72
2021/03/16 02:43:48;;;;;;;12.90;1.80;;;21.00;34.90;;;;;;5093996;28;20039;-73
2021/03/16 02:46:13;;;;;;;9.65;1.85;;;21.10;35.00;;;;;;5076533;28;20036;-72
2021/03/16 02:48:39;;;;;;;7.57;1.67;;;21.00;34.90;;;;;;5094855;28;20438;-72
2021/03/16 02:51:05;;;;;;;11.52;2.20;;;21.00;34.80;;;;;;5094161;28;20020;-73
2021/03/16 02:53:34;;;;;;;9.35;2.10;;;21.00;35.60;;;;;;5077227;28;20106;-73
2021/03/16 02:56:00;;;;;;;9.75;1.77;;;21.00;34.90;;;;;;5093322;28;20027;-74
2021/03/16 02:58:26;;;;;;;6.43;1.75;;;21.00;34.90;;;;;;5060019;28;20036;-73
2021/03/16 03:00:52;;;;;;;14.52;2.00;;;21.00;34.90;;;;;;5076675;28;20026;-73
2021/03/16 03:03:19;;;;;;;10.13;2.10;;;21.00;35.00;;;;;;5075800;28;20488;-73
2021/03/16 03:05:45;;;;;;;13.85;1.70;;;21.00;35.00;;;;;;5076620;28;20110;-73
2021/03/16 03:08:11;;;;;;;11.10;2.33;;;21.00;35.00;;;;;;5092964;28;20115;-73
2021/03/16 03:10:36;;;;;;;9.18;1.50;;;20.90;34.90;;;;;;5093759;28;20020;-73
2021/03/16 03:13:03;;;;;;;11.82;1.83;;;21.00;35.00;;;;;;5093267;28;20023;-73
2021/03/16 03:15:29;;;;;;;11.07;2.05;;;21.00;35.00;;;;;;5094446;28;20464;-73
2021/03/16 03:17:55;;;;;;;7.38;1.85;;;21.00;35.00;;;;;;5075468;28;20085;-73
2021/03/16 03:20:20;;;;;;;14.18;2.17;;;20.90;35.00;;;;;;5093314;28;20024;-73
2021/03/16 03:23:05;;;;;;;11.43;1.63;;;20.90;35.00;;;;;;5094193;28;20024;-73
2021/03/16 03:25:39;;;;;;;9.57;1.77;;;20.90;35.00;;;;;;5078049;28;20118;-74
2021/03/16 03:28:14;;;;;;;11.93;2.10;;;20.90;35.00;;;;;;5061145;28;20032;-74
2021/03/16 03:30:40;;;;;;;13.45;1.88;;;20.90;35.10;;;;;;5071538;28;20491;-74
2021/03/16 03:33:06;;;;;;;4.88;1.33;;;20.90;35.10;;;;;;5076309;28;20020;-74
2021/03/16 03:35:32;;;;;;;9.43;1.80;;;20.90;35.10;;;;;;5059139;28;20048;-74
2021/03/16 03:37:58;;;;;;;8.93;2.00;;;20.90;35.10;;;;;;5075772;28;20055;-74
2021/03/16 03:40:26;;;;;;;9.75;2.40;;;20.90;35.10;;;;;;5076015;28;20032;-74
2021/03/16 03:42:54;;;;;;;6.57;1.60;;;20.90;35.20;;;;;;5092491;28;20020;-74
2021/03/16 03:45:20;;;;;;;10.60;1.70;;;20.80;35.20;;;;;;5074833;28;20097;-72
2021/03/16 03:47:45;;;;;;;6.28;1.45;;;20.80;35.10;;;;;;5092528;28;20407;-73
2021/03/16 03:50:12;;;;;;;5.45;1.13;;;20.80;35.20;;;;;;5091895;28;20043;-73
2021/03/16 03:52:38;;;;;;;11.20;1.75;;;20.80;35.20;;;;;;5075614;28;20510;-73
2021/03/16 03:55:05;;;;;;;8.32;1.73;;;20.80;35.20;;;;;;5092659;28;20031;-74
2021/03/16 03:57:31;;;;;;;7.85;1.80;;;20.80;35.20;;;;;;5075413;28;20071;-74
2021/03/16 03:59:56;;;;;;;7.32;1.90;;;20.80;35.30;;;;;;5076415;28;20062;-74
2021/03/16 04:02:22;;;;;;;9.50;1.70;;;20.80;35.30;;;;;;5074537;28;20020;-74
2021/03/16 04:04:47;;;;;;;14.57;2.03;;;20.80;35.30;;;;;;5091491;28;20107;-74
2021/03/16 04:07:14;;;;;;;8.65;1.70;;;20.80;35.30;;;;;;5058032;28;20027;-74
2021/03/16 04:09:39;;;;;;;8.20;1.80;;;20.80;35.30;;;;;;5075270;28;20047;-74
2021/03/16 04:12:05;;;;;;;10.52;1.90;;;20.80;35.30;;;;;;5092362;28;20028;-74
2021/03/16 04:14:31;;;;;;;9.75;2.17;;;20.80;35.30;;;;;;5075595;28;20053;-83
2021/03/16 04:16:57;;;;;;;7.10;1.42;;;20.80;35.30;;;;;;5075412;28;20024;-83
2021/03/16 04:19:23;;;;;;;7.10;1.45;;;20.80;35.30;;;;;;5075354;28;20084;-83
2021/03/16 04:21:48;;;;;;;9.98;1.77;;;20.80;35.20;;;;;;5075163;28;20039;-83
2021/03/16 04:24:14;;;;;;;15.45;2.38;;;20.80;35.20;;;;;;5092145;28;20040;-83
2021/03/16 04:26:39;;;;;;;10.82;1.92;;;20.80;35.20;;;;;;5073391;28;20045;-80
2021/03/16 04:29:05;;;;;;;9.93;1.55;;;20.80;35.20;;;;;;5091212;28;20115;-80
2021/03/16 04:31:31;;;;;;;8.02;1.65;;;20.80;35.20;;;;;;5093011;28;20487;-84
2021/03/16 04:33:59;;;;;;;9.63;1.75;;;20.80;35.20;;;;;;5091673;28;20051;-82
2021/03/16 04:36:25;;;;;;;9.45;2.15;;;20.80;35.20;;;;;;5092335;28;20538;-82
2021/03/16 04:38:50;;;;;;;9.93;2.10;;;20.80;35.20;;;;;;5091043;28;20032;-81
2021/03/16 04:41:16;;;;;;;7.88;1.73;;;20.80;35.20;;;;;;5093604;28;20067;-86
2021/03/16 04:43:44;;;;;;;8.60;2.22;;;20.80;35.20;;;;;;5091744;28;20047;-85
2021/03/16 04:46:10;;;;;;;9.85;1.90;;;20.80;35.20;;;;;;5075737;28;20040;-85
2021/03/16 04:48:36;;;;;;;6.85;1.58;;;20.80;35.20;;;;;;5091418;28;20395;-86
2021/03/16 04:51:01;;;;;;;10.40;1.83;;;20.80;35.20;;;;;;5075412;28;20020;-86
2021/03/16 04:53:27;;;;;;;6.97;1.80;;;20.80;35.20;;;;;;5091104;28;20127;-87
2021/03/16 04:55:52;;;;;;;11.77;2.08;;;20.80;35.90;;;;;;5092918;28;20024;-85
2021/03/16 04:58:18;;;;;;;10.15;1.70;;;20.80;35.20;;;;;;5091824;28;20059;-85
2021/03/16 05:00:44;;;;;;;1.98;0.47;;;20.70;35.30;;;;;;5075151;28;20021;-84
2021/03/16 05:03:09;;;;;;;0.13;0.05;;;20.70;35.30;;;;;;5091691;28;20058;-85
2021/03/16 05:05:35;;;;;;;0.43;0.13;;;20.70;35.40;;;;;;5074728;28;20028;-85
2021/03/16 05:08:00;;;;;;;0.20;0.20;;;20.70;35.60;;;;;;5074470;28;20502;-86
2021/03/16 05:10:26;;;;;;;0.65;0.65;;;20.70;35.50;;;;;;5091407;28;20058;-85
2021/03/16 05:13:07;;;;;;;0.05;0.05;;;20.80;36.20;;;;;;5092633;28;20036;-86
2021/03/16 05:15:32;;;;;;;0.00;0.00;;;20.90;35.50;;;;;;5091013;28;20453;-86
2021/03/16 05:17:58;;;;;;;6.30;1.17;;;20.90;35.50;;;;;;5090939;28;20107;-80
2021/03/16 05:20:23;;;;;;;2.17;0.30;;;21.00;35.30;;;;;;5090762;28;20492;-78
2021/03/16 05:22:49;;;;;;;2.20;0.38;;;21.10;35.30;;;;;;5091255;28;20579;-80
2021/03/16 05:25:15;;;;;;;0.10;0.10;;;21.20;35.20;;;;;;5073695;28;20027;-78
2021/03/16 05:27:41;;;;;;;0.10;0.10;;;21.30;35.00;;;;;;5091177;28;20025;-78
2021/03/16 05:30:07;;;;;;;0.20;0.20;;;21.40;34.90;;;;;;5090475;28;20020;-79
2021/03/16 05:32:33;;;;;;;3.75;0.50;;;21.50;34.70;;;;;;5090646;28;20032;-78
2021/03/16 05:34:59;;;;;;;0.65;0.13;;;21.50;34.60;;;;;;5091793;28;20502;-78
2021/03/16 05:37:25;;;;;;;0.10;0.10;;;21.50;34.60;;;;;;5089185;28;20040;-76
2021/03/16 05:39:53;;;;;;;0.70;0.25;;;21.60;34.50;;;;;;5089964;28;20044;-79
2021/03/16 05:42:19;;;;;;;0.93;0.32;;;21.60;34.40;;;;;;5091856;28;20024;-79
2021/03/16 05:44:45;;;;;;;2.17;0.20;;;21.70;34.40;;;;;;5073965;28;20037;-77
2021/03/16 05:47:20;;;;;;;0.70;0.25;;;21.70;34.30;;;;;;5092344;28;20085;-76
2021/03/16 05:49:46;;;;;;;0.20;0.10;;;21.70;34.30;;;;;;5073921;28;20503;-75
2021/03/16 05:52:12;;;;;;;0.68;0.20;;;21.70;34.30;;;;;;5092126;28;20099;-77
2021/03/16 05:54:37;;;;;;;3.85;0.20;;;21.80;34.20;;;;;;5074609;28;20034;-78
2021/03/16 05:57:05;;;;;;;0.00;0.00;;;21.80;34.80;;;;;;5091926;28;20528;-79
2021/03/16 05:59:31;;;;;;;0.47;0.35;;;21.80;34.30;;;;;;5073770;28;20028;-79
2021/03/16 06:01:56;;;;;;;0.17;0.17;;;21.80;34.20;;;;;;5089998;28;20500;-78
2021/03/16 06:04:22;;;;;;;1.00;0.10;;;21.90;34.30;;;;;;5072634;28;20055;-78
2021/03/16 06:06:48;;;;;;;2.58;0.30;;;21.90;34.20;;;;;;5089552;28;20082;-79
2021/03/16 06:09:13;;;;;;;2.20;0.10;;;21.90;34.20;;;;;;5090856;28;20122;-78
2021/03/16 06:11:49;;;;;;;0.00;0.00;;;21.90;34.20;;;;;;5090394;28;20103;-79
2021/03/16 06:14:14;;;;;;;;;;;21.90;34.20;;;;;;5073707;28;20083;-80
2021/03/16 06:16:40;;;;;;;0.00;0.00;;;22.00;34.20;;;;;;5098326;28;19951;-78
2021/03/16 06:19:06;;;;;;;0.77;0.32;;;22.00;34.20;;;;;;5077305;28;20859;-76
2021/03/16 06:21:31;;;;;;;0.03;0.03;;;21.90;34.20;;;;;;5093966;28;20161;-76
2021/03/16 06:23:58;;;;;;;4.28;0.30;;;21.90;34.20;;;;;;5095027;28;20027;-78
2021/03/16 06:26:25;;;;;;;0.20;0.20;;;21.90;34.20;;;;;;5093491;28;20464;-78
2021/03/16 06:28:51;;;;;;;0.22;0.15;;;22.00;34.20;;;;;;5094435;28;20074;-78
2021/03/16 06:31:25;;;;;;;0.00;0.00;;;22.00;34.10;;;;;;5074464;28;20070;-78
2021/03/16 06:33:51;;;;;;;0.60;0.00;;;22.00;34.10;;;;;;5076982;28;20051;-78
2021/03/16 06:36:17;;;;;;;0.00;0.00;;;22.00;34.70;;;;;;5093516;28;20067;-79
2021/03/16 06:38:42;;;;;;;0.05;0.03;;;22.10;34.00;;;;;;5093933;28;20032;-78
2021/03/16 06:41:12;;;;;;;0.00;0.00;;;22.10;33.90;;;;;;5093710;28;20491;-79
2021/03/16 06:43:39;;;;;;;0.00;0.00;;;22.10;33.90;;;;;;5076872;28;20024;-78
2021/03/16 06:46:05;;;;;;;0.17;0.10;;;22.20;33.80;;;;;;5075195;28;20044;-79
2021/03/16 06:48:35;;;;;;;0.35;0.35;;;22.20;33.70;;;;;;5092869;28;20048;-78
2021/03/16 06:51:11;;;;;;;5.07;1.55;;;22.20;33.70;;;;;;5094954;28;20050;-78
2021/03/16 06:53:36;;;;;;;0.52;0.10;;;22.30;33.70;;;;;;5080005;28;20040;-78
2021/03/16 06:56:02;;;;;;;1.27;0.32;;;22.30;33.60;;;;;;5087195;28;20043;-77
2021/03/16 06:58:32;;;;;;;0.00;0.00;;;22.30;33.60;;;;;;5097128;28;20020;-78
2021/03/16 07:01:10;;;;;;;1.05;0.68;;;22.30;33.60;;;;;;5094044;28;20398;-78
2021/03/16 07:03:36;;;;;;;0.00;0.00;;;22.30;33.50;;;;;;5093273;28;20107;-78
2021/03/16 07:06:20;;;;;;;2.72;0.20;;;22.30;33.60;;;;;;5092758;28;20240;-79
2021/03/16 07:08:47;;;;;;;0.75;0.20;;;22.30;33.50;;;;;;5093858;28;20028;-78
2021/03/16 07:11:14;;;;;;;0.00;0.00;;;22.30;33.50;;;;;;5092091;28;20016;-79
2021/03/16 07:13:40;;;;;;;0.77;0.28;;;22.40;33.40;;;;;;5076681;28;20036;-78
2021/03/16 07:16:06;;;;;;;0.10;0.05;;;22.40;33.40;;;;;;5091755;28;20028;-79
2021/03/16 07:18:40;;;;;;;0.00;0.00;;;22.40;33.40;;;;;;5093658;28;20048;-78
2021/03/16 07:21:20;;;;;;;0.10;0.10;;;22.50;33.40;;;;;;5091744;28;20024;-78
2021/03/16 07:23:52;;;;;;;1.15;0.63;;;22.50;33.40;;;;;;5092686;28;20035;-78
2021/03/16 07:26:18;;;;;;;0.40;0.05;;;22.50;33.30;;;;;;5091587;28;20033;-78
2021/03/16 07:28:47;;;;;;;1.55;0.10;;;22.50;34.00;;;;;;5091645;28;20033;-79
2021/03/16 07:31:28;;;;;;;0.08;0.08;;;22.50;33.40;;;;;;5092261;28;20026;-78
2021/03/16 07:33:53;;;;;;;1.10;0.20;;;22.50;33.30;;;;;;5092624;28;20023;-78
2021/03/16 07:36:19;;;;;;;2.08;0.15;;;22.60;33.30;;;;;;5092770;28;20055;-79
2021/03/16 07:38:45;;;;;;;0.10;0.10;;;22.60;33.20;;;;;;5094171;28;20040;-79
2021/03/16 07:41:10;;;;;;;0.35;0.30;;;22.60;33.20;;;;;;5075545;28;20070;-79
2021/03/16 07:43:37;;;;;;;1.35;0.65;;;22.60;33.10;;;;;;5094083;28;20057;-79
2021/03/16 07:46:08;;;;;;;0.73;0.50;;;22.60;33.20;;;;;;5075094;28;20040;-79
2021/03/16 07:48:33;;;;;;;1.40;0.40;;;22.60;33.20;;;;;;5091759;28;20019;-74
2021/03/16 07:51:17;;;;;;;5.78;0.38;;;22.60;33.20;;;;;;5088419;28;20044;-74
2021/03/16 07:53:56;;;;;;;0.00;0.00;;;22.60;33.30;;;;;;5086027;28;20028;-74
2021/03/16 07:56:26;;;;;;;0.40;0.30;;;22.50;33.20;;;;;;5082745;28;20073;-74
2021/03/16 07:58:52;;;;;;;0.65;0.10;;;22.50;33.30;;;;;;5097553;28;20107;-74
2021/03/16 08:01:17;;;;;;;4.40;0.28;;;22.60;33.30;;;;;;5093411;28;20087;-74
2021/03/16 08:03:43;;;;;;;0.63;0.10;;;22.60;33.40;;;;;;5091643;28;20364;-74
2021/03/16 08:06:23;;;;;;;0.10;0.10;;;22.50;33.40;;;;;;5091745;28;20398;-74
2021/03/16 08:08:49;;;;;;;1.15;0.30;;;22.50;33.50;;;;;;5075375;28;20525;-74
2021/03/16 08:11:15;;;;;;;0.95;0.32;;;22.50;33.50;;;;;;5075607;28;20048;-73
2021/03/16 08:13:40;;;;;;;0.10;0.10;;;22.50;33.50;;;;;;5058413;28;20082;-73
2021/03/16 08:16:13;;;;;;;0.52;0.20;;;22.50;33.50;;;;;;5091884;28;20036;-74
2021/03/16 08:18:39;;;;;;;0.10;0.10;;;22.50;33.50;;;;;;5091925;28;20020;-74
2021/03/16 08:21:11;;;;;;;0.13;0.13;;;22.50;33.50;;;;;;5074582;28;20047;-74
2021/03/16 08:23:45;;;;;;;0.00;0.00;;;22.60;33.50;;;;;;5091834;28;20026;-72
2021/03/16 08:26:17;;;;;;;0.10;0.00;;;22.50;33.50;;;;;;5078614;28;20387;-74
2021/03/16 08:28:47;;;;;;;0.00;0.00;;;22.60;33.50;;;;;;5074394;28;20088;-73
2021/03/16 08:31:12;;;;;;;0.50;0.30;;;22.70;33.50;;;;;;5097637;28;20020;-73
2021/03/16 08:33:38;;;;;;;0.30;0.13;;;22.70;33.40;;;;;;5098856;28;20031;-73
2021/03/16 08:36:04;;;;;;;0.05;0.05;;;22.70;33.40;;;;;;5073222;28;20020;-73
2021/03/16 08:38:34;;;;;;;3.33;0.25;;;22.70;33.40;;;;;;5091836;28;20024;-74
2021/03/16 08:41:04;;;;;;;0.40;0.40;;;22.70;33.30;;;;;;5059039;28;20089;-74
2021/03/16 08:43:29;;;;;;;0.00;0.00;;;22.80;33.40;;;;;;5096010;28;20368;-74
2021/03/16 08:45:55;;;;;;;2.17;0.30;;;22.80;33.40;;;;;;5090927;28;20046;-74
2021/03/16 08:48:41;;;;;;;1.20;0.52;;;22.80;33.40;;;;;;5090280;28;20586;-74
2021/03/16 08:51:06;;;;;;;0.00;0.00;;;22.80;33.50;;;;;;5090814;28;20043;-74
2021/03/16 08:53:32;;;;;;;0.30;0.30;;;22.80;33.60;;;;;;5089941;28;20278;-72
2021/03/16 08:55:58;;;;;;;1.35;0.47;;;22.70;33.60;;;;;;5092177;28;21473;-72
2021/03/16 08:58:24;;;;;;;1.55;0.20;;;22.80;33.70;;;;;;5090471;28;20036;-72
2021/03/16 09:00:49;;;;;;;0.40;0.10;;;22.70;33.80;;;;;;5073978;28;20410;-72
2021/03/16 09:03:15;;;;;;;5.63;0.15;;;22.70;33.80;;;;;;5090315;28;20044;-72
2021/03/16 09:05:43;;;;;;;0.22;0.15;;;22.70;33.90;;;;;;5092695;28;20034;-72
2021/03/16 09:08:09;;;;;;;1.20;0.30;;;22.70;33.90;;;;;;5090588;28;20591;-72
2021/03/16 09:10:35;;;;;;;7.18;0.25;;;22.70;34.00;;;;;;5091805;28;20103;-72
2021/03/16 09:13:01;;;;;;;0.47;0.30;;;22.70;34.10;;;;;;5073993;28;20465;-74
2021/03/16 09:15:30;;;;;;;1.77;0.10;;;22.70;34.20;;;;;;5088614;28;20028;-75
2021/03/16 09:17:58;;;;;;;0.10;0.10;;;22.60;34.10;;;;;;5091197;28;20024;-74
2021/03/16 09:20:28;;;;;;;0.00;0.00;;;22.60;34.20;;;;;;5056762;28;20046;-73
2021/03/16 09:23:00;;;;;;;0.60;0.17;;;22.70;34.30;;;;;;5090845;28;20035;-75
2021/03/16 09:25:27;;;;;;;0.13;0.13;;;22.60;34.20;;;;;;5090423;28;20039;-72
2021/03/16 09:27:59;;;;;;;0.10;0.10;;;22.60;34.20;;;;;;5075290;28;20111;-73
2021/03/16 09:30:26;;;;;;;0.00;0.00;;;22.70;34.30;;;;;;5093869;28;20372;-73
2021/03/16 09:32:52;;;;;;;0.75;0.00;;;22.60;34.30;;;;;;5091490;28;20048;-74
2021/03/16 09:35:18;;;;;;;0.00;0.00;;;22.60;35.00;;;;;;5078673;28;20444;-74
2021/03/16 09:37:48;;;;;;;0.32;0.22;;;22.60;34.40;;;;;;5091268;28;20431;-73
2021/03/16 09:40:14;;;;;;;0.08;0.08;;;22.50;34.50;;;;;;5073479;28;20040;-73
2021/03/16 09:42:45;;;;;;;1.13;0.17;;;22.50;34.50;;;;;;5084700;28;20048;-75
2021/03/16 09:45:18;;;;;;;0.22;0.17;;;22.50;34.50;;;;;;5074677;28;20043;-74
2021/03/16 09:47:44;;;;;;;0.00;0.00;;;22.60;34.60;;;;;;5089167;28;20031;-73
2021/03/16 09:50:15;;;;;;;0.30;0.10;;;22.50;34.60;;;;;;5060881;28;20028;-73
2021/03/16 09:52:40;;;;;;;0.00;0.00;;;22.50;34.70;;;;;;5094323;28;20120;-73
2021/03/16 09:55:07;;;;;;;0.00;0.00;;;22.50;34.70;;;;;;5094531;28;20106;-74
2021/03/16 09:57:41;;;;;;;1.65;0.10;;;22.50;34.60;;;;;;5094002;28;20027;-73
2021/03/16 10:00:09;;;;;;;0.93;0.47;;;22.60;34.60;;;;;;5082458;28;20373;-74
2021/03/16 10:02:36;;;;;;;3.38;0.40;;;22.70;34.50;;;;;;5090699;28;20044;-74
2021/03/16 10:05:10;;;;;;;0.90;0.57;;;22.70;34.40;;;;;;5075887;28;20043;-74
2021/03/16 10:07:35;;;;;;;0.90;0.20;;;22.80;34.40;;;;;;5096110;28;20024;-74
2021/03/16 10:10:14;;;;;;;0.55;0.15;;;22.80;34.30;;;;;;5076540;28;20047;-74
2021/03/16 10:12:49;;;;;;;0.10;0.10;;;22.80;34.30;;;;;;5094091;28;20114;-74
2021/03/16 10:15:23;;;;;;;0.00;0.00;;;22.80;34.30;;;;;;5094447;28;20082;-74
2021/03/16 10:17:48;;;;;;;1.00;0.10;;;22.80;34.30;;;;;;5091609;28;20065;-73
2021/03/16 10:20:16;;;;;;;0.10;0.10;;;22.80;34.30;;;;;;5094419;28;20453;-73
2021/03/16 10:22:41;;;;;;;1.65;0.00;;;22.80;34.30;;;;;;5094136;28;20085;-74
2021/03/16 10:25:10;;;;;;;0.00;0.00;;;22.80;34.30;;;;;;5095282;28;20036;-74
2021/03/16 10:27:36;;;;;;;1.02;0.20;;;22.80;34.30;;;;;;5095646;28;20023;-73
2021/03/16 10:30:11;;;;;;;8.13;0.10;;;22.90;34.40;;;;;;5094872;28;20399;-74
2021/03/16 10:32:39;;;;;;;0.20;0.20;;;22.80;34.40;;;;;;5101921;28;20491;-74
2021/03/16 10:35:05;;;;;;;0.00;0.00;;;22.80;34.40;;;;;;5094595;28;20024;-74
2021/03/16 10:37:31;;;;;;;0.17;0.17;;;22.80;34.40;;;;;;5094906;28;20530;-78
2021/03/16 10:40:00;;;;;;;0.10;0.00;;;22.80;34.40;;;;;;5094360;28;20056;-78
2021/03/16 10:42:26;;;;;;;1.90;0.38;;;22.80;34.50;;;;;;5094838;28;20028;-78
2021/03/16 10:44:51;;;;;;;0.00;0.00;;;22.80;35.10;;;;;;5093612;28;20047;-78
2021/03/16 10:47:17;;;;;;;0.30;0.10;;;22.80;34.50;;;;;;5095228;28;20020;-78
2021/03/16 10:49:42;;;;;;;0.05;0.05;;;22.80;34.60;;;;;;5075157;28;20434;-78
2021/03/16 10:52:08;;;;;;;0.00;0.00;;;22.80;34.60;;;;;;5091446;28;20114;-78
2021/03/16 10:54:36;;;;;;;0.00;0.00;;;22.80;34.60;;;;;;5094551;28;20103;-78
2021/03/16 10:57:05;;;;;;;0.20;0.00;;;22.80;34.60;;;;;;5093798;28;20119;-78
2021/03/16 10:59:31;;;;;;;0.00;0.00;;;22.80;34.60;;;;;;5093652;28;20024;-77
2021/03/16 11:02:02;;;;;;;0.90;0.22;;;22.80;34.70;;;;;;5094910;28;20032;-77
2021/03/16 11:04:35;;;;;;;0.93;0.43;;;22.80;34.70;;;;;;5094705;28;20050;-78
2021/03/16 11:07:04;;;;;;;0.00;0.00;;;22.80;34.60;;;;;;5100505;28;20024;-78
2021/03/16 11:09:29;;;;;;;0.00;0.00;;;22.80;34.60;;;;;;5094469;28;20016;-78
2021/03/16 11:11:55;;;;;;;0.00;0.00;;;22.90;34.60;;;;;;5094151;28;20020;-78
2021/03/16 11:14:20;;;;;;;0.13;0.13;;;22.80;34.60;;;;;;5093511;28;20024;-79
2021/03/16 11:16:46;;;;;;;0.40;0.40;;;22.90;34.60;;;;;;5092072;28;20062;-78
2021/03/16 11:19:11;;;;;;;0.45;0.25;;;22.90;34.60;;;;;;5092153;28;20583;-78
2021/03/16 11:22:24;;;;;;;0.05;0.00;;;22.90;34.60;;;;;;5096731;28;20032;-79
2021/03/16 11:24:49;;;;;;;0.20;0.20;;;22.90;34.60;;;;;;5094660;28;20027;-78
2021/03/16 11:27:15;;;;;;;0.28;0.10;;;22.90;34.60;;;;;;5092469;28;20032;-79
2021/03/16 11:29:41;;;;;;;2.10;0.15;;;22.90;34.60;;;;;;5091680;28;20491;-79
2021/03/16 11:32:06;;;;;;;0.20;0.10;;;22.90;34.60;;;;;;5057702;28;20427;-79
2021/03/16 11:34:32;;;;;;;0.00;0.00;;;22.90;34.60;;;;;;5073337;28;20071;-79
2021/03/16 11:36:58;;;;;;;0.00;0.00;;;22.90;34.60;;;;;;5092969;28;20090;-79
2021/03/16 11:39:24;;;;;;;0.00;0.00;;;22.90;34.60;;;;;;5091643;28;20081;-78
2021/03/16 11:41:50;;;;;;;0.00;0.00;;;22.90;34.60;;;;;;5091831;28;20044;-78
2021/03/16 11:44:15;;;;;;;0.05;0.05;;;22.90;34.60;;;;;;5090028;28;20412;-78
2021/03/16 11:46:41;;;;;;;0.03;0.03;;;22.80;34.70;;;;;;5092372;28;20060;-79
2021/03/16 11:49:07;;;;;;;0.00;0.00;;;22.80;34.80;;;;;;5090681;28;20036;-78
2021/03/16 11:51:33;;;;;;;0.03;0.00;;;22.80;34.80;;;;;;5092922;28;20028;-78
2021/03/16 11:53:58;;;;;;;0.38;0.20;;;22.80;34.80;;;;;;5091581;28;20115;-78
2021/03/16 11:56:24;;;;;;;0.00;0.00;;;22.80;34.80;;;;;;5093328;28;20028;-78
2021/03/16 11:58:49;;;;;;;0.08;0.08;;;22.80;34.90;;;;;;5092318;28;20028;-78
2021/03/16 12:01:15;;;;;;;0.00;0.00;;;22.80;35.60;;;;;;5093371;28;20020;-78
2021/03/16 12:03:40;;;;;;;0.00;0.00;;;22.80;35.00;;;;;;5092322;28;20024;-78
2021/03/16 12:06:06;;;;;;;0.10;0.10;;;22.80;35.00;;;;;;5090713;28;20106;-78
2021/03/16 12:08:32;;;;;;;0.00;0.00;;;22.80;35.00;;;;;;5074772;28;20376;-78
2021/03/16 12:10:58;;;;;;;0.20;0.20;;;22.80;35.10;;;;;;5091362;28;20032;-78
2021/03/16 12:13:23;;;;;;;0.35;0.22;;;22.80;35.10;;;;;;5091673;28;20027;-78
2021/03/16 12:15:49;;;;;;;0.00;0.00;;;22.80;35.20;;;;;;5091260;28;20028;-78
2021/03/16 12:18:14;;;;;;;0.00;0.00;;;22.70;35.10;;;;;;5093686;28;20095;-78
2021/03/16 12:20:40;;;;;;;2.90;0.10;;;22.70;35.20;;;;;;5091737;28;20032;-78
2021/03/16 12:23:05;;;;;;;0.10;0.10;;;22.70;35.30;;;;;;5090045;28;20055;-78
2021/03/16 12:26:04;;;;;;;0.57;0.17;;;22.70;35.30;;;;;;5092302;28;20020;-78
2021/03/16 12:28:30;;;;;;;1.10;0.10;;;22.70;35.40;;;;;;5091663;28;20027;-79
2021/03/16 12:31:02;;;;;;;1.17;0.17;;;22.70;35.40;;;;;;5095015;28;20036;-79
2021/03/16 12:33:28;;;;;;;0.60;0.00;;;22.60;36.10;;;;;;5092071;28;20016;-78
2021/03/16 12:35:54;;;;;;;0.15;0.13;;;22.60;35.50;;;;;;5092651;28;20054;-78
2021/03/16 12:38:19;;;;;;;0.00;0.00;;;22.60;35.50;;;;;;5092311;28;20399;-79
2021/03/16 12:40:45;;;;;;;0.75;0.20;;;22.60;35.50;;;;;;5080737;28;20035;-78
2021/03/16 12:43:11;;;;;;;2.97;0.47;;;22.60;35.60;;;;;;5092722;28;20553;-78
2021/03/16 12:45:37;;;;;;;0.60;0.20;;;22.60;35.60;;;;;;5074835;28;20048;-79
2021/03/16 12:48:02;;;;;;;0.00;0.00;;;22.60;35.70;;;;;;5074939;28;20032;-79